Littlesburg, West Virginia
Current Conditions -  °F | °C
As of 12:52 PM on Saturday 25 Oct 2014 (Local Time) from KBLF Reporting Station
Clear Clear  
Wind Chill: 16°   Ceiling: Unl
Heat Index: 16°   Visibility: 10mi
Dew Point:   Wind: 9mph
Humidity: 50%   Direction: 280°W
Pressure: 30.06"   Gusts: NA
Location:  37.2994°N, 81.226°W
Report Text: KBLF 251652Z AUTO 28008KT 10SM CLR 16/06 A3006 RMK AO2 SLP168 T01610056
Loading
Personal Weather Stations






























Interactive Weather Map
Tropical Storm Tracking
New forecast layout! Learn more

10-Day Weather Forecast

Advertisements
Track Severe Weather on mobile